Terminal Aerodrome Forecast
Issued by NWS Shreveport, LA

Home | Current Version | Previous Version | Text Only | Print | Product List | Glossary On
Versions: 1 2 3 4 5 6 7 8 9 10 11 12 13 14 15 16 17 18 19 20 21 22 23
916
FTUS44 KSHV 221724
TAFMLU
TAF
KMLU 221724Z 2218/2318 VRB04KT P6SM SCT040 BKN250
      TEMPO 2218/2220 BKN025
     FM222100 VRB04KT P6SM SCT040
     FM230500 VRB03KT 3SM BR SKC
      TEMPO 2309/2313 1/2SM FG VV005
     FM231400 17004KT P6SM SKC=

USA.gov is the U.S. government's official web portal to all federal, state and local government web resources and services.